createdAt,value
2022-10-28T00:02:25.204Z,17.00
2022-10-28T00:07:30.074Z,17.00
2022-10-28T00:12:37.770Z,16.90
2022-10-28T00:17:41.439Z,16.90
2022-10-28T00:22:45.379Z,16.90
2022-10-28T00:27:50.487Z,16.90
2022-10-28T00:32:54.431Z,16.80
2022-10-28T00:37:58.256Z,16.80
2022-10-28T00:43:03.214Z,16.80
2022-10-28T00:48:07.856Z,16.80
2022-10-28T00:53:16.349Z,16.80
2022-10-28T00:58:24.368Z,16.70
2022-10-28T01:03:28.239Z,16.70
2022-10-28T01:08:32.217Z,16.70
2022-10-28T01:13:45.671Z,16.70
2022-10-28T01:18:59.872Z,16.70
2022-10-28T01:24:20.658Z,16.70
2022-10-28T01:29:57.760Z,16.60
2022-10-28T01:35:14.052Z,16.60
2022-10-28T01:40:23.500Z,16.60
2022-10-28T01:45:31.768Z,16.50
2022-10-28T01:50:42.496Z,16.50
2022-10-28T01:55:50.300Z,16.50
2022-10-28T02:00:54.632Z,16.40
2022-10-28T02:06:03.463Z,16.40
2022-10-28T02:11:34.646Z,16.40
2022-10-28T02:16:48.274Z,16.40
2022-10-28T02:22:04.560Z,16.30
2022-10-28T02:27:14.295Z,16.30
2022-10-28T02:32:22.927Z,16.30
2022-10-28T02:37:31.575Z,16.20
2022-10-28T02:42:38.712Z,16.20
2022-10-28T02:47:46.930Z,16.20
2022-10-28T02:52:55.070Z,16.20
2022-10-28T02:57:59.147Z,16.10
2022-10-28T03:03:02.800Z,16.20
2022-10-28T03:08:08.034Z,16.10
2022-10-28T03:13:11.659Z,16.10
2022-10-28T03:18:17.407Z,16.10
2022-10-28T03:23:22.408Z,16.00
2022-10-28T03:28:26.094Z,16.00
2022-10-28T03:33:29.782Z,16.00
2022-10-28T03:38:34.761Z,16.00
2022-10-28T03:43:38.449Z,16.00
2022-10-28T03:48:42.064Z,16.00
2022-10-28T03:53:47.069Z,15.90
2022-10-28T04:03:54.741Z,15.80
2022-10-28T04:08:59.944Z,15.90
2022-10-28T04:14:03.568Z,15.80
2022-10-28T04:19:07.197Z,15.80
2022-10-28T04:24:12.439Z,15.80
2022-10-28T04:29:16.052Z,15.80
2022-10-28T04:34:19.721Z,15.90
2022-10-28T04:39:24.704Z,15.90
2022-10-28T04:44:28.308Z,15.90
2022-10-28T04:49:35.403Z,15.90
2022-10-28T04:54:43.015Z,15.90
2022-10-28T04:59:46.885Z,16.00
2022-10-28T05:04:50.606Z,16.00
2022-10-28T05:09:55.598Z,16.00
2022-10-28T05:14:59.211Z,16.00
2022-10-28T05:20:02.921Z,16.00
2022-10-28T05:25:08.629Z,16.00
2022-10-28T05:30:13.646Z,16.00
2022-10-28T05:35:17.345Z,16.00
2022-10-28T05:40:22.372Z,16.00
2022-10-28T05:45:26.130Z,16.00
2022-10-28T05:50:29.880Z,16.00
2022-10-28T05:55:35.367Z,16.00
2022-10-28T06:00:39.038Z,15.90
2022-10-28T06:05:44.929Z,15.90
2022-10-28T06:10:55.336Z,15.90
2022-10-28T06:15:59.010Z,15.90
2022-10-28T06:21:05.205Z,15.80
2022-10-28T06:26:10.266Z,15.80
2022-10-28T06:31:14.000Z,15.80
2022-10-28T06:36:17.774Z,15.80
2022-10-28T06:41:22.792Z,15.80
2022-10-28T06:46:26.949Z,15.80
2022-10-28T06:51:33.020Z,15.80
2022-10-28T06:56:38.086Z,15.70
2022-10-28T07:01:41.900Z,15.80
2022-10-28T07:06:47.563Z,15.80
2022-10-28T07:12:00.859Z,15.80
2022-10-28T07:17:08.511Z,15.80
2022-10-28T07:22:12.419Z,15.90
2022-10-28T07:27:17.582Z,15.90
2022-10-28T07:32:21.233Z,15.90
2022-10-28T07:37:24.864Z,15.90
2022-10-28T07:42:29.825Z,16.00
2022-10-28T07:47:33.868Z,16.00
2022-10-28T07:52:38.243Z,16.10
2022-10-28T07:57:43.309Z,16.20
2022-10-28T08:02:47.046Z,16.20
2022-10-28T08:07:50.713Z,16.30
2022-10-28T08:12:57.301Z,16.40
2022-10-28T08:18:00.918Z,16.40
2022-10-28T08:23:06.750Z,16.50
2022-10-28T08:28:14.389Z,16.60
2022-10-28T08:33:19.168Z,16.70
2022-10-28T08:38:22.845Z,16.90
2022-10-28T08:43:52.817Z,17.10
2022-10-28T08:49:03.419Z,17.40
2022-10-28T08:54:13.738Z,17.80
2022-10-28T08:59:22.470Z,17.90
2022-10-28T09:04:34.813Z,18.00
2022-10-28T09:09:39.568Z,18.10
2022-10-28T09:15:10.891Z,18.30
2022-10-28T09:20:20.348Z,18.50
2022-10-28T09:25:30.062Z,18.50
2022-10-28T09:30:43.804Z,18.50
2022-10-28T09:35:49.594Z,18.70
2022-10-28T09:41:00.831Z,19.00
2022-10-28T09:46:12.572Z,19.30
2022-10-28T09:51:29.518Z,19.60
2022-10-28T09:56:33.199Z,19.90
2022-10-28T10:01:41.049Z,20.00
2022-10-28T10:06:45.252Z,20.10
2022-10-28T10:11:51.252Z,20.20
2022-10-28T10:17:00.156Z,20.10
2022-10-28T10:22:03.767Z,20.10
2022-10-28T10:27:18.896Z,20.10
2022-10-28T10:32:27.977Z,20.10
2022-10-28T10:37:35.942Z,20.10
2022-10-28T10:42:46.784Z,20.10
2022-10-28T10:48:18.369Z,20.10
2022-10-28T10:53:25.373Z,20.10
2022-10-28T10:58:33.347Z,20.20
2022-10-28T11:03:47.872Z,20.20
2022-10-28T11:08:57.454Z,20.20
2022-10-28T11:14:08.562Z,20.20
2022-10-28T11:19:22.861Z,20.30
2022-10-28T11:24:44.598Z,20.30
2022-10-28T11:29:49.108Z,20.30
2022-10-28T11:35:32.252Z,20.30
2022-10-28T11:40:46.228Z,20.30
2022-10-28T11:46:00.587Z,20.30
2022-10-28T11:51:21.656Z,20.40
2022-10-28T11:56:34.247Z,20.30
2022-10-28T12:01:46.676Z,20.40
2022-10-28T12:07:14.614Z,20.40
2022-10-28T12:12:24.649Z,20.40
2022-10-28T12:17:35.973Z,20.40
2022-10-28T12:22:49.241Z,20.40
2022-10-28T12:27:56.457Z,20.50
2022-10-28T12:33:05.314Z,20.50
2022-10-28T12:38:16.352Z,20.50
2022-10-28T12:43:25.282Z,20.50
2022-10-28T12:48:34.413Z,20.50
2022-10-28T12:53:45.403Z,20.40
2022-10-28T12:58:56.078Z,20.40
2022-10-28T13:03:59.934Z,20.30
2022-10-28T13:09:36.358Z,20.30
2022-10-28T13:15:03.466Z,20.30
2022-10-28T13:20:20.242Z,20.30
2022-10-28T13:25:33.415Z,20.30
2022-10-28T13:30:37.132Z,20.30
2022-10-28T13:35:40.845Z,20.30
2022-10-28T13:41:30.493Z,20.40
2022-10-28T13:47:03.442Z,20.40
2022-10-28T13:52:21.579Z,20.40
2022-10-28T13:57:29.776Z,20.40
2022-10-28T14:02:39.928Z,20.50
2022-10-28T14:07:54.470Z,20.50
2022-10-28T14:13:01.775Z,20.50
2022-10-28T14:18:29.985Z,20.50
2022-10-28T14:24:08.661Z,20.50
2022-10-28T14:29:29.935Z,20.50
2022-10-28T14:34:42.985Z,20.50
2022-10-28T14:40:01.995Z,20.50
2022-10-28T14:45:21.355Z,20.50
2022-10-28T14:50:31.754Z,20.50
2022-10-28T14:55:36.449Z,20.50
2022-10-28T15:00:48.638Z,20.40
2022-10-28T15:05:52.589Z,20.50
2022-10-28T15:10:56.418Z,20.40
2022-10-28T15:16:03.785Z,20.40
2022-10-28T15:21:09.951Z,20.40
2022-10-28T15:26:15.639Z,20.40
2022-10-28T15:31:20.666Z,20.30
2022-10-28T15:36:27.121Z,20.30
2022-10-28T15:41:52.420Z,20.30
2022-10-28T15:46:58.444Z,20.30
2022-10-28T15:52:21.730Z,20.30
2022-10-28T15:57:27.013Z,20.20
2022-10-28T16:02:57.481Z,20.20
2022-10-28T16:08:03.334Z,20.10
2022-10-28T16:13:10.576Z,20.10
2022-10-28T16:18:17.113Z,20.10
2022-10-28T16:23:23.907Z,20.00
2022-10-28T16:28:28.192Z,20.00
2022-10-28T16:33:34.951Z,19.90
2022-10-28T16:38:38.657Z,19.90
2022-10-28T16:43:42.388Z,19.80
2022-10-28T16:48:47.997Z,19.70
2022-10-28T16:53:54.669Z,19.60
2022-10-28T16:58:58.299Z,19.60
2022-10-28T17:04:03.424Z,19.50
2022-10-28T17:09:07.155Z,19.50
2022-10-28T17:14:10.775Z,19.50
2022-10-28T17:19:16.079Z,19.40
2022-10-28T17:24:23.310Z,19.40
2022-10-28T17:29:26.958Z,19.40
2022-10-28T17:34:31.977Z,19.30
2022-10-28T17:39:35.682Z,19.20
2022-10-28T17:44:39.764Z,19.30
2022-10-28T17:49:44.878Z,19.20
2022-10-28T17:54:48.542Z,19.10
2022-10-28T17:59:52.246Z,19.10
2022-10-28T18:04:57.204Z,19.00
2022-10-28T18:10:00.931Z,19.00
2022-10-28T18:15:05.423Z,18.90
2022-10-28T18:20:11.348Z,18.90
2022-10-28T18:25:15.270Z,18.90
2022-10-28T18:30:19.024Z,18.80
2022-10-28T18:35:24.128Z,18.80
2022-10-28T18:40:27.857Z,18.80
2022-10-28T18:45:32.416Z,18.80
2022-10-28T18:50:37.427Z,18.70
2022-10-28T18:55:41.092Z,18.70
2022-10-28T19:00:44.854Z,18.60
2022-10-28T19:05:50.237Z,18.60
2022-10-28T19:10:56.469Z,18.50
2022-10-28T19:16:00.588Z,18.50
2022-10-28T19:21:08.419Z,18.50
2022-10-28T19:26:13.709Z,18.40
2022-10-28T19:31:19.937Z,18.40
2022-10-28T19:36:26.753Z,18.30
2022-10-28T19:41:31.416Z,18.30
2022-10-28T19:46:36.531Z,18.30
2022-10-28T19:51:42.699Z,18.20
2022-10-28T19:56:47.624Z,18.20
2022-10-28T20:01:51.512Z,18.10
2022-10-28T20:06:57.696Z,18.10
2022-10-28T20:12:01.914Z,18.10
2022-10-28T20:17:06.837Z,18.10
2022-10-28T20:22:12.083Z,18.10
2022-10-28T20:27:15.773Z,18.10
2022-10-28T20:32:21.457Z,18.10
2022-10-28T20:37:26.494Z,18.10
2022-10-28T20:42:30.182Z,18.00
2022-10-28T20:47:33.826Z,18.00
2022-10-28T20:52:38.782Z,18.00
2022-10-28T20:57:43.260Z,18.00
2022-10-28T21:02:47.161Z,18.00
2022-10-28T21:07:52.509Z,18.00
2022-10-28T21:12:56.720Z,18.00
2022-10-28T21:18:00.600Z,17.90
2022-10-28T21:23:06.470Z,17.90
2022-10-28T21:28:10.138Z,17.80
2022-10-28T21:33:14.109Z,17.80
2022-10-28T21:38:19.209Z,17.70
2022-10-28T21:43:22.858Z,17.70
2022-10-28T21:48:27.567Z,17.60
2022-10-28T21:53:35.151Z,17.60
2022-10-28T21:58:39.477Z,17.50
2022-10-28T22:03:43.353Z,17.50
2022-10-28T22:08:48.516Z,17.40
2022-10-28T22:13:58.495Z,17.40
2022-10-28T22:19:04.069Z,17.40
2022-10-28T22:24:09.869Z,17.40
2022-10-28T22:29:13.510Z,17.40
2022-10-28T22:34:17.187Z,17.30
2022-10-28T22:39:22.216Z,17.30
2022-10-28T22:44:25.809Z,17.30
2022-10-28T22:49:29.399Z,17.30
2022-10-28T22:54:34.507Z,17.30
2022-10-28T22:59:38.204Z,17.30
2022-10-28T23:04:42.084Z,17.30
2022-10-28T23:09:47.184Z,17.30
2022-10-28T23:14:50.870Z,17.30
2022-10-28T23:19:54.514Z,17.20
2022-10-28T23:24:59.507Z,17.20
2022-10-28T23:30:03.118Z,17.20
2022-10-28T23:35:07.675Z,17.10
2022-10-28T23:40:13.529Z,17.10
2022-10-28T23:45:17.335Z,17.10
2022-10-28T23:50:20.970Z,17.10
2022-10-28T23:55:26.197Z,17.00
